地図

経路データ

SID SEASON NUMBER BASIN SUBBASIN NAME ISO_TIME NATURE LAT LON WMO_WIND WMO_PRES WMO_AGENCY TRACK_TYPE DIST2LAND LANDFALL IFLAG USA_AGENCY USA_ATCF_ID USA_LAT USA_LON USA_RECORD USA_STATUS USA_WIND USA_PRES USA_SSHS USA_R34_NE USA_R34_SE USA_R34_SW USA_R34_NW USA_R50_NE USA_R50_SE USA_R50_SW USA_R50_NW USA_R64_NE USA_R64_SE USA_R64_SW USA_R64_NW USA_POCI USA_ROCI USA_RMW USA_EYE TOKYO_LAT TOKYO_LON TOKYO_GRADE TOKYO_WIND TOKYO_PRES TOKYO_R50_DIR TOKYO_R50_LONG TOKYO_R50_SHORT TOKYO_R30_DIR TOKYO_R30_LONG TOKYO_R30_SHORT TOKYO_LAND CMA_LAT CMA_LON CMA_CAT CMA_WIND CMA_PRES HKO_LAT HKO_LON HKO_CAT HKO_WIND HKO_PRES NEWDELHI_LAT NEWDELHI_LON NEWDELHI_GRADE NEWDELHI_WIND NEWDELHI_PRES NEWDELHI_CI NEWDELHI_DP NEWDELHI_POCI REUNION_LAT REUNION_LON REUNION_TYPE REUNION_WIND REUNION_PRES REUNION_TNUM REUNION_CI REUNION_RMW REUNION_R34_NE REUNION_R34_SE REUNION_R34_SW REUNION_R34_NW REUNION_R50_NE REUNION_R50_SE REUNION_R50_SW REUNION_R50_NW REUNION_R64_NE REUNION_R64_SE REUNION_R64_SW REUNION_R64_NW BOM_LAT BOM_LON BOM_TYPE BOM_WIND BOM_PRES BOM_TNUM BOM_CI BOM_RMW BOM_R34_NE BOM_R34_SE BOM_R34_SW BOM_R34_NW BOM_R50_NE BOM_R50_SE BOM_R50_SW BOM_R50_NW BOM_R64_NE BOM_R64_SE BOM_R64_SW BOM_R64_NW BOM_ROCI BOM_POCI BOM_EYE BOM_POS_METHOD BOM_PRES_METHOD NADI_LAT NADI_LON NADI_CAT NADI_WIND NADI_PRES WELLINGTON_LAT WELLINGTON_LON WELLINGTON_WIND WELLINGTON_PRES DS824_LAT DS824_LON DS824_STAGE DS824_WIND DS824_PRES TD9636_LAT TD9636_LON TD9636_STAGE TD9636_WIND TD9636_PRES TD9635_LAT TD9635_LON TD9635_WIND TD9635_PRES TD9635_ROCI NEUMANN_LAT NEUMANN_LON NEUMANN_CLASS NEUMANN_WIND NEUMANN_PRES MLC_LAT MLC_LON MLC_CLASS MLC_WIND MLC_PRES USA_GUST BOM_GUST BOM_GUST_PER REUNION_GUST REUNION_GUST_PER USA_SEAHGT USA_SEARAD_NE USA_SEARAD_SE USA_SEARAD_SW USA_SEARAD_NW STORM_SPEED STORM_DIR
1961038S13070 1961 16 SI MM EVA 1961-02-07 00:00:00 TS -13.0000 70.4000 main 1568 1541 ____________O_ -1 -13.0000 70.4000 TC 25 7 270
1961038S13070 1961 16 SI MM EVA 1961-02-07 03:00:00 TS -13.0001 70.0500 main 1541 1532 ____________P_ -1 -13.0001 70.0500 TC 25 3 270
1961038S13070 1961 16 SI MM EVA 1961-02-07 06:00:00 TS -13.0000 70.1000 reunion main 1541 1514 O____O___OO_O_ jtwc_sh SH171961 -13.0000 70.4000 -1 -13.0000 70.4000 99 9.90000 -13.0000 70.4000 TC 25 -13.0000 70.4000 7 -13.0000 69.7000 TC 25 2 270
1961038S13070 1961 16 SI MM EVA 1961-02-07 09:00:00 TS -12.9993 69.8180 main 1514 1486 P____P___PP_P_ SH171961 -13.0001 70.0500 -1 -13.0001 70.0500 99 -13.0001 70.0500 TC 25 -12.9955 70.0578 7 -13.0000 69.3500 TC 25 6 270
1961038S13070 1961 16 SI MM EVA 1961-02-07 12:00:00 TS -12.9986 69.5273 reunion main 1486 1460 O____O___OP_O_ jtwc_sh SH171961 -13.0000 69.7000 -1 -13.0000 69.7000 99 9.90000 -13.0000 69.7000 TC 25 -12.9927 69.7124 7 -13.0000 69.0000 TC 25 6 270
1961038S13070 1961 16 SI MM EVA 1961-02-07 15:00:00 TS -12.9972 69.2107 main 1460 1433 P____P___PP_P_ SH171961 -13.0000 69.3500 -1 -13.0000 69.3500 99 -13.0000 69.3500 TC 25 -12.9935 69.3609 7 -12.9925 68.6425 TC 25 7 270
1961038S13070 1961 16 SI MM EVA 1961-02-07 18:00:00 TS -13.0000 68.8600 reunion main 1433 1398 O____O___OO_O_ jtwc_sh SH171961 -13.0000 69.0000 -1 -13.0000 69.0000 99 9.90000 -13.0000 69.0000 TC 25 -13.0000 69.0000 7 -13.0000 68.3000 TC 25 7 269
1961038S13070 1961 16 SI MM EVA 1961-02-07 21:00:00 TS -13.0068 68.5042 main 1398 1371 P____P___PP_P_ SH171961 -12.9925 68.6425 -1 -12.9925 68.6425 99 -12.9925 68.6425 TC 25 -13.0138 68.6313 7 -13.0425 67.9625 TC 25 7 268
1961038S13070 1961 16 SI MM EVA 1961-02-08 00:00:00 TS -13.0270 68.1750 reunion main 1371 1339 O____O___OP_O_ jtwc_sh SH171961 -13.0000 68.3000 -1 -13.0000 68.3000 99 9.90000 -13.0000 68.3000 TC 25 -13.0352 68.2751 7 -13.1000 67.7000 TC 25 6 264
1961038S13070 1961 16 SI MM EVA 1961-02-08 03:00:00 TS -13.0683 67.8873 main 1339 1322 P____P___PP_P_ SH171961 -13.0425 67.9700 -1 -13.0425 67.9700 99 -13.0425 67.9700 TC 25 -13.0639 67.9563 7 -13.1499 67.5700 TC 25 5 260
1961038S13070 1961 16 SI MM EVA 1961-02-08 06:00:00 TS -13.1200 67.6600 reunion main 1322 1298 O____O___OO_O_ jtwc_sh SH171961 -13.1000 67.7000 -1 -13.1000 67.7000 99 9.90000 -13.1000 67.7000 TC 25 -13.1000 67.7000 7 -13.2000 67.5000 TC 25 4 256
1961038S13070 1961 16 SI MM EVA 1961-02-08 09:00:00 TS -13.1677 67.4914 main 1298 1289 P____P___PP_P_ SH171961 -13.1500 67.5125 -1 -13.1500 67.5125 99 -13.1500 67.5125 TC 25 -13.1385 67.5272 7 -13.2500 67.3925 TC 27 3 250
1961038S13070 1961 16 SI MM EVA 1961-02-08 12:00:00 TS -13.2169 67.3835 reunion main 1289 1274 O____O___OP_O_ jtwc_sh SH171961 -13.2000 67.4000 -1 -13.2000 67.4000 99 9.90000 -13.2000 67.4000 TC 25 -13.1847 67.4175 7 -13.3000 67.3000 TC 30 2 239
1961038S13070 1961 16 SI MM EVA 1961-02-08 15:00:00 TS -13.2662 67.3193 main 1274 1274 P____P___PP_P_ SH171961 -13.2500 67.3350 -1 -13.2500 67.3350 99 -13.2500 67.3350 TC 25 -13.2386 67.3490 7 -13.3425 67.2425 TC 27 1 224
1961038S13070 1961 16 SI MM EVA 1961-02-08 18:00:00 TS -13.3200 67.2800 reunion main 1274 1258 O____O___OO_O_ jtwc_sh SH171961 -13.3000 67.3000 -1 -13.3000 67.3000 99 9.90000 -13.3000 67.3000 TC 25 -13.3000 67.3000 7 -13.4000 67.2000 TC 25 1 219
1961038S13070 1961 16 SI MM EVA 1961-02-08 21:00:00 TS -13.3728 67.2263 main 1258 1258 P____P___PP_P_ SH171961 -13.3425 67.2500 -1 -13.3425 67.2500 99 -13.3425 67.2500 TC 25 -13.3515 67.2315 7 -13.4850 67.1500 TC 25 2 221
1961038S13070 1961 16 SI MM EVA 1961-02-09 00:00:00 TS -13.4425 67.1755 reunion main 1258 1243 O____O___OP_O_ jtwc_sh SH171961 -13.4000 67.2000 -1 -13.4000 67.2000 99 9.90000 -13.4000 67.2000 TC 25 -13.4125 67.1775 7 -13.6000 67.1000 TC 25 2 210
1961038S13070 1961 16 SI MM EVA 1961-02-09 03:00:00 TS -13.5364 67.1254 main 1243 1229 P____P___PP_P_ SH171961 -13.4850 67.1500 -1 -13.4850 67.1500 99 -13.4850 67.1500 TC 25 -13.4922 67.1347 7 -13.7350 67.0425 TC 25 2 204
1961038S13070 1961 16 SI MM EVA 1961-02-09 06:00:00 TS -13.6600 67.0800 reunion main 1229 1214 O____O___OO_O_ jtwc_sh SH171961 -13.6000 67.1000 -1 -13.6000 67.1000 99 9.90000 -13.6000 67.1000 TC 25 -13.6000 67.1000 7 -13.9000 67.0000 TC 25 3 197
1961038S13070 1961 16 SI MM EVA 1961-02-09 09:00:00 TS -13.8088 67.0368 main 1214 1201 P____P___PP_P_ SH171961 -13.7350 67.0425 -1 -13.7350 67.0425 99 -13.7350 67.0425 TC 25 -13.7462 67.0638 7 -14.0925 66.9925 TC 25 3 192
1961038S13070 1961 16 SI MM EVA 1961-02-09 12:00:00 TS -13.9840 67.0070 reunion main 1201 1188 O____O___OP_O_ jtwc_sh SH171961 -13.9000 67.0000 -1 -13.9000 67.0000 99 9.90000 -13.9000 67.0000 TC 25 -13.9200 67.0350 7 -14.3000 67.0000 TC 25 4 187
1961038S13070 1961 16 SI MM EVA 1961-02-09 15:00:00 TS -14.1832 66.9982 main 1188 1175 P____P___PP_P_ SH171961 -14.1000 66.9925 -1 -14.1000 66.9925 99 -14.1000 66.9925 TC 25 -14.1088 67.0138 7 -14.5075 67.0000 TC 25 4 182
1961038S13070 1961 16 SI MM EVA 1961-02-09 18:00:00 TS -14.3632 67.0000 reunion main 1175 1169 O____O___OO_O_ jtwc_sh SH171961 -14.3000 67.0000 -1 -14.3000 67.0000 99 9.90000 -14.3000 67.0000 TC 25 -14.3000 67.0000 7 -14.7000 67.0000 TC 25 3 0
1961038S13070 1961 16 SI MM EVA 1961-02-09 21:00:00 TS -14.5031 66.9985 main 1169 1162 P____P___PP_P_ SH171961 -14.4500 67.0000 -1 -14.4500 67.0000 99 -14.4500 67.0000 TC 25 -14.4837 66.9934 7 -14.8600 67.0000 TC 25 3 185
1961038S13070 1961 16 SI MM EVA 1961-02-10 00:00:00 TS -14.6446 66.9983 reunion main 1162 1150 O____O___OP_O_ jtwc_sh SH171961 -14.6000 67.0000 -1 -14.6000 67.0000 99 9.90000 -14.6000 67.0000 TC 25 -14.6600 66.9925 7 -15.0000 67.0000 TC 25 3 176
1961038S13070 1961 16 SI MM EVA 1961-02-10 03:00:00 TS -14.7984 66.9988 main 1150 1138 P____P___PP___ SH171961 -14.7875 67.0000 -1 -14.7875 67.0000 99 -14.7875 67.0000 TC 25 -14.8312 66.9953 7 TC 4 176
1961038S13070 1961 16 SI MM EVA 1961-02-10 06:00:00 TS -15.0000 67.0000 reunion main 1138 O____O___OO___ jtwc_sh SH171961 -15.0000 67.0000 -1 -15.0000 67.0000 99 9.90000 -15.0000 67.0000 TC 25 -15.0000 67.0000 7 4 178

IBTrACS Databaseについて

本データベースは、米国NOAAが公開する1842年以降の世界の熱帯低気圧のベストトラックデータアーカイブInternational Best Track Archive for Climate Stewardship (IBTrACS)を、ウェブで閲覧しやすい形式に変換したものです。

最終更新日:2021-10-21